Airfield :
LOGIN :

Register | Disclaimer

   EN    FR    IT 

 










Legend :    VFR   Marginal VFR   IFR   Intensive IFR   Very Intensive IFR
Visi :
Ceiling :
>= 8 km
>= 3000ft
5 to 8 km
1000 to 3000 ft
1500m to 5 km
500 to 1000 ft
800 to 1500m
200 to 500 ft
< 800m
< 200 ft
Symbols :   Thunderstorms  Fog  Heavy snow  Heavy precipitations  Wind > 20 kt
SIGMETs :     Misc.  Thunderstorms  Icing  Turbulence  Mountain Waves  Volcanic Ashes






- Airport Elevation : 37 ft
- IATA code : HLY


EGOV - RAF Valley

CURRENT METAR :
  • 212250Z AUTO 02003KT 9999 OVC099/// 08/06 Q1032

EXPIRED METARs :
  • 212220Z AUTO 06003KT 9999 FEW090/// BKN100/// 08/06 Q1032
  • 212150Z AUTO 04002KT 9999 SCT055/// SCT077/// OVC110/// 09/06 Q1032
  • 212120Z AUTO 05003KT 9999 // OVC074/// 09/06 Q1032
  • 212050Z AUTO 01003KT 9999 // OVC073/// 09/06 Q1032
  • 212020Z AUTO 35004KT 9999 -RA OVC071/// 09/06 Q1032
  • 211950Z AUTO 01004KT 9999 // SCT068/// BKN082/// 09/06 Q1032
  • 211920Z AUTO 03005KT 9999 -RA FEW068/// BKN083/// 10/06 Q1032
  • 211820Z AUTO 05008KT 9999 -RA FEW070/// OVC084/// 11/06 Q1032
  • 211750Z AUTO 03007KT 9999 -RA FEW031/// OVC083/// 11/05 Q1032

Expired Forecast.



MET'MAP, your aeronautical weather chart ! - Copyright ORBIFLY December 2007 - Disclaimer

ORBIFLY MET'MAP TEAM :

Programming & Development : Alexandra Zaïnal
Original concept : Baudouin d'Aumeries
Technical & hardware support : Manuel Goepfert
Assistance : Marc-Olivier Méhu




SOURCES & CREDITS :

   NOAA